MAS1326 WMKK-WMKN
Flight info
| Callsign | MAS1326 |
|---|---|
| Flight time | 0h 35m |
| Altitude | 25000 |
| Route | PIBOS1D PIBOS R208 GUNBO GUNBO1E |
| Aircraft | B38M/M-SDE1FGHILORVWXY/HB1 |
Departure
| Time | 2026-05-07 14:45 |
|---|---|
| Airport | Kuala Lumpur International Airport (WMKK) |
Arrival
| Time | 2026-05-07 15:21 |
|---|---|
| Airport | Sultan Mahmud Airport (WMKN) |
| Time | Latitude | Longitude | Altitude | Speed | Heading |
|---|---|---|---|---|---|
| 2026-05-07 14:12 | 2.75358 | 101.70787 | 75 ft | 0 kts | 326° |
| 2026-05-07 14:32 | 2.75350 | 101.70792 | 75 ft | 4 kts | 333° |
| 2026-05-07 14:32 | 2.75324 | 101.70800 | 69 ft | 4 kts | 345° |
| 2026-05-07 14:33 | 2.75299 | 101.70808 | 66 ft | 4 kts | 354° |
| 2026-05-07 14:33 | 2.75275 | 101.70803 | 68 ft | 4 kts | 36° |
| 2026-05-07 14:33 | 2.75262 | 101.70790 | 69 ft | 1 kts | 56° |
| 2026-05-07 14:33 | 2.75260 | 101.70787 | 70 ft | 0 kts | 56° |
| 2026-05-07 14:39 | 2.75267 | 101.70798 | 75 ft | 3 kts | 56° |
| 2026-05-07 14:39 | 2.75285 | 101.70825 | 70 ft | 6 kts | 56° |
| 2026-05-07 14:40 | 2.75314 | 101.70868 | 66 ft | 9 kts | 56° |
| 2026-05-07 14:40 | 2.75354 | 101.70928 | 72 ft | 12 kts | 56° |
| 2026-05-07 14:40 | 2.75404 | 101.71004 | 73 ft | 14 kts | 56° |
| 2026-05-07 14:40 | 2.75460 | 101.71087 | 71 ft | 15 kts | 56° |
| 2026-05-07 14:41 | 2.75524 | 101.71183 | 70 ft | 18 kts | 56° |
| 2026-05-07 14:41 | 2.75598 | 101.71294 | 68 ft | 21 kts | 56° |
| 2026-05-07 14:41 | 2.75656 | 101.71414 | 75 ft | 15 kts | 99° |
| 2026-05-07 14:41 | 2.75594 | 101.71469 | 70 ft | 13 kts | 148° |
| 2026-05-07 14:42 | 2.75513 | 101.71521 | 72 ft | 15 kts | 147° |
| 2026-05-07 14:42 | 2.75416 | 101.71588 | 66 ft | 18 kts | 147° |
| 2026-05-07 14:42 | 2.75302 | 101.71664 | 74 ft | 21 kts | 145° |
| 2026-05-07 14:42 | 2.75180 | 101.71746 | 75 ft | 21 kts | 147° |
| 2026-05-07 14:43 | 2.75056 | 101.71830 | 68 ft | 22 kts | 146° |
| 2026-05-07 14:43 | 2.74928 | 101.71915 | 81 ft | 22 kts | 146° |
| 2026-05-07 14:43 | 2.74796 | 101.72002 | 81 ft | 24 kts | 146° |
| 2026-05-07 14:43 | 2.74760 | 101.72075 | 83 ft | 11 kts | 69° |
| 2026-05-07 14:44 | 2.74786 | 101.72119 | 82 ft | 5 kts | 56° |
| 2026-05-07 14:44 | 2.74810 | 101.72154 | 83 ft | 8 kts | 56° |
| 2026-05-07 14:44 | 2.74861 | 101.72181 | 80 ft | 10 kts | 355° |
| 2026-05-07 14:44 | 2.74930 | 101.72146 | 85 ft | 13 kts | 327° |
| 2026-05-07 14:45 | 2.75153 | 101.71997 | 76 ft | 75 kts | 326° |
| 2026-05-07 14:45 | 2.75780 | 101.71575 | 70 ft | 139 kts | 326° |
| 2026-05-07 14:45 | 2.76707 | 101.70956 | 269 ft | 171 kts | 326° |
| 2026-05-07 14:45 | 2.77668 | 101.70274 | 993 ft | 166 kts | 324° |
| 2026-05-07 14:46 | 2.78660 | 101.69664 | 1624 ft | 172 kts | 334° |
| 2026-05-07 14:46 | 2.79768 | 101.69100 | 2110 ft | 187 kts | 336° |
| 2026-05-07 14:46 | 2.81110 | 101.68916 | 2466 ft | 209 kts | 12° |
| 2026-05-07 14:46 | 2.82465 | 101.69597 | 2839 ft | 232 kts | 42° |
| 2026-05-07 14:47 | 2.83287 | 101.70322 | 3206 ft | 243 kts | 39° |
| 2026-05-07 14:47 | 2.84707 | 101.71286 | 4016 ft | 249 kts | 33° |
| 2026-05-07 14:47 | 2.86198 | 101.72265 | 4643 ft | 265 kts | 34° |
| 2026-05-07 14:47 | 2.87775 | 101.73309 | 5291 ft | 277 kts | 34° |
| 2026-05-07 14:48 | 2.89379 | 101.74381 | 6149 ft | 280 kts | 34° |
| 2026-05-07 14:48 | 2.91011 | 101.75480 | 6928 ft | 284 kts | 34° |
| 2026-05-07 14:48 | 2.92652 | 101.76589 | 7746 ft | 286 kts | 34° |
| 2026-05-07 14:48 | 2.94311 | 101.77711 | 8565 ft | 289 kts | 34° |
| 2026-05-07 14:49 | 2.95983 | 101.78845 | 9373 ft | 292 kts | 34° |
| 2026-05-07 14:49 | 2.97677 | 101.79993 | 10155 ft | 295 kts | 35° |
| 2026-05-07 14:49 | 2.99408 | 101.81165 | 10706 ft | 309 kts | 35° |
| 2026-05-07 14:49 | 3.01225 | 101.82392 | 11269 ft | 320 kts | 35° |
| 2026-05-07 14:50 | 3.03061 | 101.83636 | 12154 ft | 319 kts | 36° |
| 2026-05-07 14:50 | 3.04909 | 101.84890 | 12986 ft | 323 kts | 36° |
| 2026-05-07 14:50 | 3.06776 | 101.86156 | 13835 ft | 325 kts | 36° |
| 2026-05-07 14:50 | 3.08643 | 101.87423 | 14595 ft | 328 kts | 36° |
| 2026-05-07 14:51 | 3.10547 | 101.88716 | 15335 ft | 332 kts | 36° |
| 2026-05-07 14:51 | 3.12466 | 101.90019 | 16079 ft | 335 kts | 36° |
| 2026-05-07 14:51 | 3.14402 | 101.91333 | 16800 ft | 339 kts | 36° |
| 2026-05-07 14:51 | 3.16362 | 101.92664 | 17496 ft | 343 kts | 37° |
| 2026-05-07 14:52 | 3.18347 | 101.94012 | 18168 ft | 347 kts | 36° |
| 2026-05-07 14:52 | 3.20331 | 101.95359 | 18725 ft | 350 kts | 36° |
| 2026-05-07 14:52 | 3.22362 | 101.96739 | 19312 ft | 353 kts | 36° |
| 2026-05-07 14:52 | 3.24405 | 101.98126 | 19848 ft | 357 kts | 36° |
| 2026-05-07 14:53 | 3.26469 | 101.99528 | 20409 ft | 360 kts | 36° |
| 2026-05-07 14:53 | 3.28552 | 102.00943 | 20966 ft | 363 kts | 36° |
| 2026-05-07 14:53 | 3.30652 | 102.02370 | 21503 ft | 367 kts | 36° |
| 2026-05-07 14:53 | 3.32772 | 102.03811 | 22032 ft | 370 kts | 36° |
| 2026-05-07 14:54 | 3.34921 | 102.05259 | 22547 ft | 374 kts | 34° |
| 2026-05-07 14:54 | 3.37260 | 102.06431 | 23071 ft | 378 kts | 27° |
| 2026-05-07 14:54 | 3.39628 | 102.07598 | 23512 ft | 382 kts | 29° |
| 2026-05-07 14:54 | 3.41987 | 102.08792 | 23936 ft | 384 kts | 29° |
| 2026-05-07 14:55 | 3.44374 | 102.10009 | 24362 ft | 386 kts | 29° |
| 2026-05-07 14:55 | 3.46776 | 102.11240 | 24741 ft | 389 kts | 29° |
| 2026-05-07 14:55 | 3.49176 | 102.12471 | 24860 ft | 386 kts | 29° |
| 2026-05-07 14:55 | 3.51563 | 102.13697 | 24888 ft | 385 kts | 29° |
| 2026-05-07 14:56 | 3.53940 | 102.14917 | 24892 ft | 385 kts | 29° |
| 2026-05-07 14:56 | 3.56328 | 102.16143 | 24893 ft | 385 kts | 29° |
| 2026-05-07 14:56 | 3.58709 | 102.17366 | 24883 ft | 384 kts | 29° |
| 2026-05-07 14:56 | 3.61085 | 102.18586 | 24888 ft | 385 kts | 29° |
| 2026-05-07 14:57 | 3.63457 | 102.19804 | 24871 ft | 385 kts | 29° |
| 2026-05-07 14:57 | 3.65836 | 102.21026 | 24870 ft | 384 kts | 29° |
| 2026-05-07 14:57 | 3.68184 | 102.22232 | 24868 ft | 384 kts | 29° |
| 2026-05-07 14:57 | 3.70562 | 102.23454 | 24868 ft | 384 kts | 29° |
| 2026-05-07 14:58 | 3.72943 | 102.24677 | 24872 ft | 384 kts | 29° |
| 2026-05-07 14:58 | 3.75322 | 102.25899 | 24863 ft | 384 kts | 29° |
| 2026-05-07 14:58 | 3.77705 | 102.27124 | 24865 ft | 385 kts | 29° |
| 2026-05-07 14:58 | 3.80082 | 102.28345 | 24867 ft | 385 kts | 29° |
| 2026-05-07 14:59 | 3.82466 | 102.29570 | 24864 ft | 385 kts | 29° |
| 2026-05-07 14:59 | 3.84835 | 102.30787 | 24872 ft | 385 kts | 29° |
| 2026-05-07 14:59 | 3.87210 | 102.32007 | 24864 ft | 384 kts | 29° |
| 2026-05-07 14:59 | 3.89589 | 102.33230 | 24865 ft | 382 kts | 29° |
| 2026-05-07 15:00 | 3.91911 | 102.34424 | 24830 ft | 369 kts | 29° |
| 2026-05-07 15:00 | 3.94165 | 102.35583 | 24818 ft | 362 kts | 29° |
| 2026-05-07 15:00 | 3.96400 | 102.36731 | 24783 ft | 360 kts | 29° |
| 2026-05-07 15:00 | 3.98624 | 102.37874 | 24770 ft | 360 kts | 29° |
| 2026-05-07 15:01 | 4.00852 | 102.39020 | 24752 ft | 358 kts | 29° |
| 2026-05-07 15:01 | 4.03083 | 102.40167 | 24152 ft | 365 kts | 29° |
| 2026-05-07 15:01 | 4.05368 | 102.41342 | 23524 ft | 374 kts | 29° |
| 2026-05-07 15:01 | 4.07693 | 102.42539 | 22771 ft | 381 kts | 29° |
| 2026-05-07 15:02 | 4.10070 | 102.43760 | 22091 ft | 385 kts | 29° |
| 2026-05-07 15:02 | 4.12449 | 102.44983 | 21658 ft | 383 kts | 29° |
| 2026-05-07 15:02 | 4.14807 | 102.46196 | 21296 ft | 379 kts | 29° |
| 2026-05-07 15:02 | 4.17142 | 102.47397 | 20915 ft | 376 kts | 29° |
| 2026-05-07 15:03 | 4.19470 | 102.48594 | 20522 ft | 374 kts | 29° |
| 2026-05-07 15:03 | 4.21773 | 102.49778 | 20139 ft | 372 kts | 29° |
| 2026-05-07 15:03 | 4.24075 | 102.50963 | 19752 ft | 370 kts | 29° |
| 2026-05-07 15:03 | 4.26356 | 102.52136 | 19369 ft | 368 kts | 29° |
| 2026-05-07 15:04 | 4.28630 | 102.53306 | 18987 ft | 366 kts | 29° |
| 2026-05-07 15:04 | 4.30875 | 102.54462 | 18606 ft | 365 kts | 29° |
| 2026-05-07 15:04 | 4.33100 | 102.55607 | 18237 ft | 363 kts | 29° |
| 2026-05-07 15:04 | 4.35370 | 102.56775 | 17813 ft | 362 kts | 29° |
| 2026-05-07 15:05 | 4.37605 | 102.57925 | 17426 ft | 359 kts | 29° |
| 2026-05-07 15:05 | 4.39816 | 102.59063 | 17039 ft | 356 kts | 29° |
| 2026-05-07 15:05 | 4.42015 | 102.60195 | 16661 ft | 354 kts | 29° |
| 2026-05-07 15:05 | 4.44164 | 102.61301 | 16295 ft | 351 kts | 29° |
| 2026-05-07 15:06 | 4.46328 | 102.62415 | 15933 ft | 349 kts | 29° |
| 2026-05-07 15:06 | 4.48474 | 102.63520 | 15578 ft | 346 kts | 29° |
| 2026-05-07 15:06 | 4.50611 | 102.64620 | 15209 ft | 344 kts | 29° |
| 2026-05-07 15:06 | 4.52736 | 102.65714 | 14574 ft | 351 kts | 29° |
| 2026-05-07 15:07 | 4.54928 | 102.66843 | 13905 ft | 358 kts | 29° |
| 2026-05-07 15:07 | 4.57171 | 102.67998 | 13191 ft | 366 kts | 29° |
| 2026-05-07 15:07 | 4.59451 | 102.69172 | 12443 ft | 372 kts | 28° |
| 2026-05-07 15:07 | 4.61767 | 102.70365 | 11717 ft | 377 kts | 28° |
| 2026-05-07 15:08 | 4.64116 | 102.71574 | 11083 ft | 380 kts | 28° |
| 2026-05-07 15:08 | 4.66460 | 102.72782 | 10626 ft | 377 kts | 28° |
| 2026-05-07 15:08 | 4.68750 | 102.73962 | 10503 ft | 363 kts | 28° |
| 2026-05-07 15:08 | 4.70952 | 102.75096 | 10447 ft | 348 kts | 28° |
| 2026-05-07 15:09 | 4.73065 | 102.76185 | 10388 ft | 335 kts | 28° |
| 2026-05-07 15:09 | 4.75093 | 102.77230 | 10321 ft | 323 kts | 28° |
| 2026-05-07 15:09 | 4.77053 | 102.78240 | 10262 ft | 310 kts | 28° |
| 2026-05-07 15:09 | 4.78938 | 102.79212 | 10184 ft | 299 kts | 28° |
| 2026-05-07 15:10 | 4.80762 | 102.80151 | 10035 ft | 292 kts | 29° |
| 2026-05-07 15:10 | 4.82561 | 102.81078 | 9754 ft | 289 kts | 29° |
| 2026-05-07 15:10 | 4.84348 | 102.82000 | 9413 ft | 289 kts | 29° |
| 2026-05-07 15:10 | 4.86128 | 102.82916 | 9096 ft | 288 kts | 28° |
| 2026-05-07 15:11 | 4.87996 | 102.83615 | 8752 ft | 288 kts | 14° |
| 2026-05-07 15:11 | 4.89942 | 102.84077 | 8432 ft | 287 kts | 15° |
| 2026-05-07 15:11 | 4.91879 | 102.84553 | 8114 ft | 285 kts | 15° |
| 2026-05-07 15:11 | 4.93794 | 102.85030 | 7814 ft | 283 kts | 15° |
| 2026-05-07 15:12 | 4.95702 | 102.85510 | 7515 ft | 281 kts | 15° |
| 2026-05-07 15:12 | 4.97583 | 102.85987 | 7215 ft | 280 kts | 15° |
| 2026-05-07 15:12 | 4.99476 | 102.86467 | 6918 ft | 279 kts | 15° |
| 2026-05-07 15:12 | 5.01350 | 102.86943 | 6618 ft | 278 kts | 15° |
| 2026-05-07 15:13 | 5.03228 | 102.87419 | 6316 ft | 278 kts | 15° |
| 2026-05-07 15:13 | 5.05076 | 102.87889 | 5993 ft | 277 kts | 15° |
| 2026-05-07 15:13 | 5.06935 | 102.88362 | 5686 ft | 275 kts | 14° |
| 2026-05-07 15:13 | 5.08798 | 102.88770 | 5385 ft | 274 kts | 11° |
| 2026-05-07 15:14 | 5.10671 | 102.89126 | 5060 ft | 274 kts | 11° |
| 2026-05-07 15:14 | 5.12535 | 102.89486 | 4756 ft | 272 kts | 12° |
| 2026-05-07 15:14 | 5.14415 | 102.89853 | 4497 ft | 270 kts | 12° |
| 2026-05-07 15:14 | 5.16202 | 102.90204 | 4349 ft | 262 kts | 11° |
| 2026-05-07 15:15 | 5.17950 | 102.90675 | 4238 ft | 250 kts | 27° |
| 2026-05-07 15:15 | 5.19243 | 102.91719 | 4190 ft | 228 kts | 45° |
| 2026-05-07 15:15 | 5.20340 | 102.92769 | 4107 ft | 214 kts | 44° |
| 2026-05-07 15:15 | 5.21371 | 102.93730 | 3996 ft | 193 kts | 44° |
| 2026-05-07 15:16 | 5.22311 | 102.94625 | 3789 ft | 183 kts | 45° |
| 2026-05-07 15:16 | 5.23216 | 102.95503 | 3594 ft | 180 kts | 45° |
| 2026-05-07 15:16 | 5.24113 | 102.96378 | 3410 ft | 180 kts | 45° |
| 2026-05-07 15:16 | 5.25003 | 102.97249 | 3181 ft | 176 kts | 46° |
| 2026-05-07 15:17 | 5.25836 | 102.98067 | 2988 ft | 162 kts | 46° |
| 2026-05-07 15:17 | 5.26628 | 102.98847 | 2768 ft | 157 kts | 46° |
| 2026-05-07 15:17 | 5.27406 | 102.99613 | 2579 ft | 157 kts | 46° |
| 2026-05-07 15:17 | 5.28183 | 103.00380 | 2392 ft | 156 kts | 46° |
| 2026-05-07 15:18 | 5.28956 | 103.01141 | 2186 ft | 155 kts | 46° |
| 2026-05-07 15:18 | 5.29726 | 103.01901 | 1978 ft | 155 kts | 46° |
| 2026-05-07 15:18 | 5.30496 | 103.02661 | 1781 ft | 155 kts | 46° |
| 2026-05-07 15:18 | 5.31264 | 103.03419 | 1581 ft | 154 kts | 46° |
| 2026-05-07 15:19 | 5.32030 | 103.04174 | 1385 ft | 154 kts | 46° |
| 2026-05-07 15:19 | 5.32792 | 103.04925 | 1187 ft | 154 kts | 46° |
| 2026-05-07 15:19 | 5.33552 | 103.05677 | 996 ft | 153 kts | 45° |
| 2026-05-07 15:19 | 5.34311 | 103.06424 | 809 ft | 153 kts | 45° |
| 2026-05-07 15:20 | 5.35067 | 103.07170 | 622 ft | 153 kts | 45° |
| 2026-05-07 15:20 | 5.35822 | 103.07916 | 419 ft | 152 kts | 44° |
| 2026-05-07 15:20 | 5.36576 | 103.08659 | 209 ft | 151 kts | 44° |
| 2026-05-07 15:20 | 5.37326 | 103.09399 | 32 ft | 146 kts | 44° |
| 2026-05-07 15:21 | 5.37869 | 103.09940 | 31 ft | 74 kts | 44° |
| 2026-05-07 15:21 | 5.38076 | 103.10172 | 31 ft | 23 kts | 81° |
| 2026-05-07 15:21 | 5.38080 | 103.10199 | 31 ft | 0 kts | 73° |
| 2026-05-07 15:21 | 5.38079 | 103.10201 | 31 ft | 1 kts | 105° |
| 2026-05-07 15:22 | 5.38061 | 103.10217 | 30 ft | 8 kts | 137° |
| 2026-05-07 15:22 | 5.38004 | 103.10280 | 28 ft | 16 kts | 114° |
| 2026-05-07 15:22 | 5.38025 | 103.10362 | 28 ft | 7 kts | 54° |
| 2026-05-07 15:22 | 5.38029 | 103.10380 | 28 ft | 0 kts | 111° |
| 2026-05-07 15:23 | 5.38027 | 103.10381 | 28 ft | 1 kts | 141° |
| 2026-05-07 15:23 | 5.37985 | 103.10410 | 28 ft | 9 kts | 133° |
| 2026-05-07 15:23 | 5.37954 | 103.10442 | 28 ft | 2 kts | 135° |
| 2026-05-07 15:23 | 5.37952 | 103.10444 | 28 ft | 0 kts | 135° |